GLO7678 SBRF-SBJU
Flight info
| Callsign | GLO7678 |
|---|---|
| Flight time | 0h 53m |
| Altitude | 27000 |
| Route | IROSI DCT UDERU |
| Aircraft | B738/M-SDE2E3FGHIRWXY/LB1 |
Departure
| Time | 2026-04-14 21:11 |
|---|---|
| Airport | Recife/Guararapes - Gilberto Freyre International Airport (SBRF) |
Arrival
| Time | 2026-04-14 22:04 |
|---|---|
| Airport | Orlando Bezerra de Menezes Airport (SBJU) |
| Time | Latitude | Longitude | Altitude | Speed | Heading |
|---|---|---|---|---|---|
| 2026-04-14 20:41 | -8.13227 | -34.91886 | 45 ft | 0 kts | 71° |
| 2026-04-14 20:55 | -8.13231 | -34.91899 | 45 ft | 2 kts | 74° |
| 2026-04-14 20:55 | -8.13236 | -34.91913 | 45 ft | 2 kts | 69° |
| 2026-04-14 20:56 | -8.13240 | -34.91927 | 45 ft | 2 kts | 71° |
| 2026-04-14 20:56 | -8.13245 | -34.91942 | 45 ft | 2 kts | 70° |
| 2026-04-14 20:56 | -8.13255 | -34.91953 | 45 ft | 2 kts | 26° |
| 2026-04-14 20:56 | -8.13269 | -34.91956 | 45 ft | 2 kts | 352° |
| 2026-04-14 20:57 | -8.13280 | -34.91953 | 45 ft | 0 kts | 334° |
| 2026-04-14 20:57 | -8.13282 | -34.91952 | 45 ft | 0 kts | 335° |
| 2026-04-14 21:02 | -8.13279 | -34.91953 | 45 ft | 1 kts | 336° |
| 2026-04-14 21:02 | -8.13270 | -34.91957 | 45 ft | 1 kts | 341° |
| 2026-04-14 21:02 | -8.13256 | -34.91960 | 45 ft | 2 kts | 344° |
| 2026-04-14 21:02 | -8.13237 | -34.91967 | 45 ft | 3 kts | 342° |
| 2026-04-14 21:03 | -8.13210 | -34.91975 | 45 ft | 4 kts | 342° |
| 2026-04-14 21:03 | -8.13176 | -34.91987 | 45 ft | 5 kts | 341° |
| 2026-04-14 21:03 | -8.13132 | -34.92002 | 45 ft | 7 kts | 341° |
| 2026-04-14 21:03 | -8.13079 | -34.92018 | 45 ft | 8 kts | 342° |
| 2026-04-14 21:04 | -8.13018 | -34.92039 | 45 ft | 9 kts | 342° |
| 2026-04-14 21:04 | -8.12947 | -34.92061 | 45 ft | 11 kts | 342° |
| 2026-04-14 21:04 | -8.12874 | -34.92086 | 45 ft | 11 kts | 341° |
| 2026-04-14 21:04 | -8.12793 | -34.92112 | 45 ft | 11 kts | 342° |
| 2026-04-14 21:05 | -8.12715 | -34.92138 | 45 ft | 12 kts | 342° |
| 2026-04-14 21:05 | -8.12627 | -34.92166 | 45 ft | 13 kts | 342° |
| 2026-04-14 21:05 | -8.12531 | -34.92198 | 45 ft | 15 kts | 342° |
| 2026-04-14 21:05 | -8.12425 | -34.92234 | 45 ft | 16 kts | 341° |
| 2026-04-14 21:06 | -8.12312 | -34.92270 | 45 ft | 16 kts | 342° |
| 2026-04-14 21:06 | -8.12212 | -34.92303 | 45 ft | 15 kts | 342° |
| 2026-04-14 21:06 | -8.12105 | -34.92338 | 45 ft | 16 kts | 342° |
| 2026-04-14 21:06 | -8.11992 | -34.92375 | 46 ft | 16 kts | 341° |
| 2026-04-14 21:07 | -8.11879 | -34.92412 | 45 ft | 16 kts | 342° |
| 2026-04-14 21:07 | -8.11772 | -34.92445 | 44 ft | 15 kts | 340° |
| 2026-04-14 21:07 | -8.11676 | -34.92479 | 43 ft | 9 kts | 341° |
| 2026-04-14 21:07 | -8.11648 | -34.92489 | 42 ft | 4 kts | 339° |
| 2026-04-14 21:08 | -8.11615 | -34.92505 | 42 ft | 4 kts | 328° |
| 2026-04-14 21:08 | -8.11614 | -34.92506 | 42 ft | 0 kts | 328° |
| 2026-04-14 21:09 | -8.11601 | -34.92514 | 42 ft | 7 kts | 325° |
| 2026-04-14 21:09 | -8.11530 | -34.92573 | 41 ft | 17 kts | 319° |
| 2026-04-14 21:09 | -8.11447 | -34.92652 | 38 ft | 13 kts | 293° |
| 2026-04-14 21:09 | -8.11500 | -34.92691 | 39 ft | 11 kts | 158° |
| 2026-04-14 21:10 | -8.11574 | -34.92665 | 41 ft | 13 kts | 162° |
| 2026-04-14 21:10 | -8.11760 | -34.92604 | 44 ft | 56 kts | 161° |
| 2026-04-14 21:10 | -8.12371 | -34.92402 | 46 ft | 125 kts | 162° |
| 2026-04-14 21:10 | -8.13390 | -34.92073 | 61 ft | 179 kts | 162° |
| 2026-04-14 21:11 | -8.14622 | -34.91687 | 687 ft | 185 kts | 160° |
| 2026-04-14 21:11 | -8.15817 | -34.91280 | 1533 ft | 184 kts | 158° |
| 2026-04-14 21:11 | -8.17068 | -34.90938 | 2257 ft | 191 kts | 168° |
| 2026-04-14 21:11 | -8.18412 | -34.90905 | 2843 ft | 201 kts | 183° |
| 2026-04-14 21:12 | -8.19830 | -34.91266 | 3358 ft | 210 kts | 200° |
| 2026-04-14 21:12 | -8.21033 | -34.92084 | 3941 ft | 214 kts | 224° |
| 2026-04-14 21:12 | -8.21856 | -34.93379 | 4370 ft | 225 kts | 247° |
| 2026-04-14 21:12 | -8.22184 | -34.94929 | 4794 ft | 235 kts | 265° |
| 2026-04-14 21:13 | -8.22169 | -34.96636 | 5047 ft | 248 kts | 272° |
| 2026-04-14 21:13 | -8.22094 | -34.98396 | 5252 ft | 262 kts | 269° |
| 2026-04-14 21:13 | -8.22184 | -35.00290 | 5656 ft | 275 kts | 263° |
| 2026-04-14 21:14 | -8.22956 | -35.04107 | 7074 ft | 283 kts | 252° |
| 2026-04-14 21:14 | -8.23544 | -35.06005 | 7810 ft | 286 kts | 251° |
| 2026-04-14 21:14 | -8.24170 | -35.07911 | 8581 ft | 287 kts | 251° |
| 2026-04-14 21:14 | -8.24739 | -35.09832 | 9321 ft | 289 kts | 257° |
| 2026-04-14 21:15 | -8.24884 | -35.11855 | 9976 ft | 295 kts | 278° |
| 2026-04-14 21:15 | -8.24275 | -35.13813 | 10704 ft | 295 kts | 298° |
| 2026-04-14 21:15 | -8.23125 | -35.15521 | 11276 ft | 301 kts | 311° |
| 2026-04-14 21:15 | -8.21571 | -35.16989 | 11667 ft | 314 kts | 327° |
| 2026-04-14 21:16 | -8.19547 | -35.17901 | 12033 ft | 326 kts | 345° |
| 2026-04-14 21:16 | -8.17284 | -35.18442 | 12390 ft | 341 kts | 348° |
| 2026-04-14 21:16 | -8.14912 | -35.18941 | 12715 ft | 356 kts | 348° |
| 2026-04-14 21:16 | -8.12410 | -35.19472 | 13074 ft | 370 kts | 348° |
| 2026-04-14 21:17 | -8.09862 | -35.20034 | 13636 ft | 376 kts | 347° |
| 2026-04-14 21:17 | -8.07296 | -35.20618 | 14240 ft | 381 kts | 347° |
| 2026-04-14 21:17 | -8.04717 | -35.21217 | 14913 ft | 384 kts | 347° |
| 2026-04-14 21:17 | -8.02091 | -35.21831 | 15592 ft | 386 kts | 347° |
| 2026-04-14 21:18 | -7.99448 | -35.22452 | 16234 ft | 389 kts | 347° |
| 2026-04-14 21:18 | -7.96802 | -35.23073 | 16869 ft | 392 kts | 347° |
| 2026-04-14 21:18 | -7.94132 | -35.23699 | 17438 ft | 396 kts | 347° |
| 2026-04-14 21:18 | -7.91448 | -35.24327 | 18034 ft | 398 kts | 347° |
| 2026-04-14 21:19 | -7.88721 | -35.24966 | 18598 ft | 402 kts | 347° |
| 2026-04-14 21:19 | -7.85987 | -35.25605 | 19144 ft | 405 kts | 347° |
| 2026-04-14 21:19 | -7.83256 | -35.26243 | 19656 ft | 409 kts | 347° |
| 2026-04-14 21:19 | -7.80437 | -35.26901 | 20192 ft | 412 kts | 346° |
| 2026-04-14 21:20 | -7.77659 | -35.27548 | 20706 ft | 415 kts | 346° |
| 2026-04-14 21:20 | -7.74801 | -35.28214 | 21224 ft | 419 kts | 346° |
| 2026-04-14 21:20 | -7.71941 | -35.28880 | 21706 ft | 422 kts | 346° |
| 2026-04-14 21:20 | -7.69089 | -35.29544 | 22167 ft | 425 kts | 346° |
| 2026-04-14 21:21 | -7.66154 | -35.30249 | 22622 ft | 429 kts | 344° |
| 2026-04-14 21:21 | -7.63334 | -35.31188 | 23109 ft | 431 kts | 336° |
| 2026-04-14 21:21 | -7.60657 | -35.32565 | 23546 ft | 433 kts | 327° |
| 2026-04-14 21:21 | -7.58251 | -35.34367 | 24007 ft | 434 kts | 318° |
| 2026-04-14 21:22 | -7.56033 | -35.36478 | 24508 ft | 436 kts | 313° |
| 2026-04-14 21:22 | -7.53959 | -35.38680 | 24953 ft | 438 kts | 311° |
| 2026-04-14 21:22 | -7.51893 | -35.40980 | 25427 ft | 440 kts | 311° |
| 2026-04-14 21:22 | -7.49870 | -35.43266 | 25804 ft | 443 kts | 310° |
| 2026-04-14 21:23 | -7.47821 | -35.45578 | 26277 ft | 445 kts | 310° |
| 2026-04-14 21:23 | -7.45753 | -35.47942 | 26636 ft | 448 kts | 308° |
| 2026-04-14 21:23 | -7.43965 | -35.50538 | 26917 ft | 450 kts | 299° |
| 2026-04-14 21:23 | -7.42658 | -35.53359 | 26922 ft | 450 kts | 289° |
| 2026-04-14 21:24 | -7.41787 | -35.56396 | 26924 ft | 447 kts | 282° |
| 2026-04-14 21:24 | -7.41261 | -35.59449 | 26928 ft | 446 kts | 277° |
| 2026-04-14 21:24 | -7.40931 | -35.62570 | 26926 ft | 447 kts | 275° |
| 2026-04-14 21:24 | -7.40706 | -35.65690 | 26926 ft | 449 kts | 274° |
| 2026-04-14 21:25 | -7.40524 | -35.68826 | 26927 ft | 447 kts | 273° |
| 2026-04-14 21:25 | -7.40355 | -35.71939 | 26932 ft | 448 kts | 273° |
| 2026-04-14 21:25 | -7.40180 | -35.75062 | 26931 ft | 448 kts | 273° |
| 2026-04-14 21:25 | -7.39995 | -35.78194 | 26933 ft | 446 kts | 273° |
| 2026-04-14 21:26 | -7.39800 | -35.81318 | 26934 ft | 448 kts | 274° |
| 2026-04-14 21:26 | -7.39597 | -35.84440 | 26938 ft | 448 kts | 274° |
| 2026-04-14 21:26 | -7.39388 | -35.87553 | 26942 ft | 447 kts | 274° |
| 2026-04-14 21:26 | -7.39174 | -35.90661 | 26945 ft | 447 kts | 274° |
| 2026-04-14 21:27 | -7.38957 | -35.93777 | 26946 ft | 447 kts | 274° |
| 2026-04-14 21:27 | -7.38738 | -35.96883 | 26950 ft | 448 kts | 274° |
| 2026-04-14 21:27 | -7.38517 | -35.99999 | 26950 ft | 447 kts | 274° |
| 2026-04-14 21:27 | -7.38295 | -36.03122 | 26951 ft | 448 kts | 274° |
| 2026-04-14 21:28 | -7.38073 | -36.06239 | 26955 ft | 448 kts | 274° |
| 2026-04-14 21:28 | -7.37850 | -36.09364 | 26955 ft | 448 kts | 274° |
| 2026-04-14 21:28 | -7.37624 | -36.12517 | 26956 ft | 447 kts | 274° |
| 2026-04-14 21:28 | -7.37401 | -36.15633 | 26955 ft | 446 kts | 274° |
| 2026-04-14 21:29 | -7.37178 | -36.18744 | 26955 ft | 447 kts | 274° |
| 2026-04-14 21:29 | -7.36956 | -36.21849 | 26956 ft | 447 kts | 274° |
| 2026-04-14 21:29 | -7.36732 | -36.24960 | 26957 ft | 446 kts | 274° |
| 2026-04-14 21:29 | -7.36508 | -36.28080 | 26956 ft | 447 kts | 274° |
| 2026-04-14 21:30 | -7.36284 | -36.31208 | 26958 ft | 447 kts | 274° |
| 2026-04-14 21:30 | -7.36060 | -36.34312 | 26961 ft | 447 kts | 274° |
| 2026-04-14 21:30 | -7.35836 | -36.37432 | 26963 ft | 447 kts | 274° |
| 2026-04-14 21:30 | -7.35611 | -36.40557 | 26963 ft | 446 kts | 274° |
| 2026-04-14 21:31 | -7.35386 | -36.43679 | 26964 ft | 447 kts | 274° |
| 2026-04-14 21:31 | -7.35161 | -36.46791 | 26966 ft | 447 kts | 274° |
| 2026-04-14 21:31 | -7.34937 | -36.49887 | 26965 ft | 447 kts | 274° |
| 2026-04-14 21:31 | -7.34710 | -36.53036 | 26966 ft | 445 kts | 274° |
| 2026-04-14 21:32 | -7.34484 | -36.56145 | 26967 ft | 447 kts | 274° |
| 2026-04-14 21:32 | -7.34258 | -36.59259 | 26967 ft | 446 kts | 274° |
| 2026-04-14 21:32 | -7.34033 | -36.62363 | 26970 ft | 446 kts | 274° |
| 2026-04-14 21:32 | -7.33808 | -36.65464 | 26967 ft | 446 kts | 274° |
| 2026-04-14 21:33 | -7.33580 | -36.68600 | 26962 ft | 445 kts | 274° |
| 2026-04-14 21:33 | -7.33355 | -36.71700 | 26963 ft | 445 kts | 274° |
| 2026-04-14 21:33 | -7.33129 | -36.74807 | 26966 ft | 444 kts | 274° |
| 2026-04-14 21:33 | -7.32902 | -36.77920 | 26966 ft | 444 kts | 274° |
| 2026-04-14 21:34 | -7.32676 | -36.81012 | 26963 ft | 444 kts | 274° |
| 2026-04-14 21:34 | -7.32449 | -36.84117 | 26964 ft | 445 kts | 274° |
| 2026-04-14 21:34 | -7.32222 | -36.87229 | 26963 ft | 445 kts | 274° |
| 2026-04-14 21:34 | -7.31994 | -36.90336 | 26966 ft | 444 kts | 274° |
| 2026-04-14 21:35 | -7.31767 | -36.93447 | 26969 ft | 445 kts | 274° |
| 2026-04-14 21:35 | -7.31538 | -36.96562 | 26970 ft | 444 kts | 274° |
| 2026-04-14 21:35 | -7.31304 | -36.99654 | 26973 ft | 444 kts | 275° |
| 2026-04-14 21:35 | -7.31021 | -37.02764 | 26971 ft | 443 kts | 276° |
| 2026-04-14 21:36 | -7.30707 | -37.05817 | 26970 ft | 443 kts | 276° |
| 2026-04-14 21:36 | -7.30371 | -37.08923 | 26974 ft | 443 kts | 276° |
| 2026-04-14 21:36 | -7.30038 | -37.11964 | 26974 ft | 443 kts | 276° |
| 2026-04-14 21:36 | -7.29699 | -37.15059 | 26976 ft | 444 kts | 276° |
| 2026-04-14 21:37 | -7.29362 | -37.18159 | 26973 ft | 444 kts | 276° |
| 2026-04-14 21:37 | -7.29033 | -37.21214 | 26971 ft | 446 kts | 276° |
| 2026-04-14 21:37 | -7.28702 | -37.24316 | 26970 ft | 445 kts | 276° |
| 2026-04-14 21:37 | -7.28373 | -37.27412 | 26968 ft | 445 kts | 276° |
| 2026-04-14 21:38 | -7.28047 | -37.30505 | 26965 ft | 445 kts | 276° |
| 2026-04-14 21:38 | -7.27721 | -37.33596 | 26964 ft | 445 kts | 276° |
| 2026-04-14 21:38 | -7.27396 | -37.36687 | 26964 ft | 444 kts | 276° |
| 2026-04-14 21:38 | -7.27071 | -37.39772 | 26965 ft | 444 kts | 276° |
| 2026-04-14 21:39 | -7.26745 | -37.42868 | 26962 ft | 444 kts | 276° |
| 2026-04-14 21:39 | -7.26422 | -37.45942 | 26964 ft | 444 kts | 276° |
| 2026-04-14 21:39 | -7.26096 | -37.49039 | 26962 ft | 444 kts | 276° |
| 2026-04-14 21:39 | -7.25771 | -37.52124 | 26961 ft | 444 kts | 276° |
| 2026-04-14 21:40 | -7.25444 | -37.55223 | 26954 ft | 444 kts | 276° |
| 2026-04-14 21:40 | -7.25120 | -37.58295 | 26950 ft | 445 kts | 276° |
| 2026-04-14 21:40 | -7.24795 | -37.61384 | 26947 ft | 446 kts | 276° |
| 2026-04-14 21:40 | -7.24468 | -37.64479 | 26941 ft | 446 kts | 276° |
| 2026-04-14 21:41 | -7.24136 | -37.67625 | 26936 ft | 446 kts | 276° |
| 2026-04-14 21:41 | -7.23810 | -37.70717 | 26931 ft | 446 kts | 276° |
| 2026-04-14 21:41 | -7.23485 | -37.73799 | 26928 ft | 445 kts | 276° |
| 2026-04-14 21:41 | -7.23160 | -37.76865 | 26927 ft | 445 kts | 276° |
| 2026-04-14 21:42 | -7.22830 | -37.79987 | 26930 ft | 446 kts | 276° |
| 2026-04-14 21:42 | -7.22505 | -37.83055 | 26933 ft | 446 kts | 276° |
| 2026-04-14 21:42 | -7.22176 | -37.86158 | 26931 ft | 445 kts | 276° |
| 2026-04-14 21:42 | -7.21845 | -37.89275 | 26930 ft | 445 kts | 276° |
| 2026-04-14 21:43 | -7.21516 | -37.92372 | 26929 ft | 445 kts | 276° |
| 2026-04-14 21:43 | -7.21187 | -37.95474 | 26927 ft | 445 kts | 276° |
| 2026-04-14 21:43 | -7.20858 | -37.98570 | 26926 ft | 445 kts | 276° |
| 2026-04-14 21:43 | -7.20531 | -38.01644 | 26925 ft | 447 kts | 276° |
| 2026-04-14 21:44 | -7.20197 | -38.04784 | 26931 ft | 447 kts | 276° |
| 2026-04-14 21:44 | -7.19867 | -38.07881 | 26936 ft | 447 kts | 276° |
| 2026-04-14 21:44 | -7.19534 | -38.11010 | 26942 ft | 447 kts | 276° |
| 2026-04-14 21:44 | -7.19202 | -38.14123 | 26951 ft | 447 kts | 276° |
| 2026-04-14 21:45 | -7.18871 | -38.17222 | 26957 ft | 446 kts | 276° |
| 2026-04-14 21:45 | -7.18542 | -38.20304 | 26963 ft | 446 kts | 276° |
| 2026-04-14 21:45 | -7.18211 | -38.23397 | 26969 ft | 447 kts | 276° |
| 2026-04-14 21:45 | -7.17881 | -38.26485 | 26973 ft | 446 kts | 276° |
| 2026-04-14 21:46 | -7.17547 | -38.29606 | 26974 ft | 446 kts | 276° |
| 2026-04-14 21:46 | -7.17216 | -38.32695 | 26970 ft | 446 kts | 276° |
| 2026-04-14 21:46 | -7.16884 | -38.35793 | 26671 ft | 440 kts | 276° |
| 2026-04-14 21:46 | -7.16561 | -38.38804 | 26330 ft | 431 kts | 276° |
| 2026-04-14 21:47 | -7.16242 | -38.41779 | 25948 ft | 424 kts | 276° |
| 2026-04-14 21:47 | -7.15928 | -38.44707 | 25426 ft | 420 kts | 276° |
| 2026-04-14 21:47 | -7.15615 | -38.47615 | 24816 ft | 419 kts | 275° |
| 2026-04-14 21:47 | -7.15302 | -38.50525 | 24167 ft | 419 kts | 275° |
| 2026-04-14 21:48 | -7.14988 | -38.53442 | 23512 ft | 419 kts | 275° |
| 2026-04-14 21:48 | -7.14673 | -38.56366 | 22851 ft | 419 kts | 275° |
| 2026-04-14 21:48 | -7.14361 | -38.59268 | 22187 ft | 419 kts | 275° |
| 2026-04-14 21:48 | -7.14047 | -38.62194 | 21527 ft | 419 kts | 275° |
| 2026-04-14 21:49 | -7.13735 | -38.65093 | 20864 ft | 419 kts | 275° |
| 2026-04-14 21:49 | -7.13422 | -38.68001 | 20175 ft | 418 kts | 275° |
| 2026-04-14 21:49 | -7.13112 | -38.70874 | 19645 ft | 403 kts | 275° |
| 2026-04-14 21:49 | -7.12811 | -38.73654 | 18876 ft | 397 kts | 276° |
| 2026-04-14 21:50 | -7.12516 | -38.76389 | 18023 ft | 394 kts | 276° |
| 2026-04-14 21:50 | -7.12221 | -38.79133 | 17138 ft | 391 kts | 276° |
| 2026-04-14 21:50 | -7.11931 | -38.81827 | 16400 ft | 384 kts | 276° |
| 2026-04-14 21:50 | -7.11646 | -38.84459 | 15728 ft | 376 kts | 276° |
| 2026-04-14 21:51 | -7.11366 | -38.87040 | 15110 ft | 368 kts | 276° |
| 2026-04-14 21:51 | -7.11091 | -38.89571 | 14496 ft | 363 kts | 276° |
| 2026-04-14 21:51 | -7.10816 | -38.92096 | 13886 ft | 357 kts | 276° |
| 2026-04-14 21:51 | -7.10549 | -38.94548 | 13304 ft | 351 kts | 276° |
| 2026-04-14 21:52 | -7.10281 | -38.97012 | 12724 ft | 360 kts | 276° |
| 2026-04-14 21:52 | -7.10008 | -38.99529 | 12115 ft | 369 kts | 276° |
| 2026-04-14 21:52 | -7.09732 | -39.02080 | 11531 ft | 364 kts | 276° |
| 2026-04-14 21:52 | -7.09461 | -39.04573 | 10966 ft | 358 kts | 276° |
| 2026-04-14 21:53 | -7.09193 | -39.07056 | 10596 ft | 352 kts | 276° |
| 2026-04-14 21:53 | -7.08932 | -39.09462 | 10428 ft | 340 kts | 276° |
| 2026-04-14 21:53 | -7.08679 | -39.11795 | 10288 ft | 328 kts | 276° |
| 2026-04-14 21:53 | -7.08435 | -39.14035 | 10154 ft | 317 kts | 276° |
| 2026-04-14 21:54 | -7.08199 | -39.16199 | 9883 ft | 312 kts | 276° |
| 2026-04-14 21:54 | -7.07964 | -39.18361 | 9466 ft | 313 kts | 276° |
| 2026-04-14 21:54 | -7.07725 | -39.20540 | 9061 ft | 312 kts | 276° |
| 2026-04-14 21:54 | -7.07491 | -39.22673 | 8687 ft | 305 kts | 276° |
| 2026-04-14 21:55 | -7.07263 | -39.24771 | 8309 ft | 300 kts | 276° |
| 2026-04-14 21:55 | -7.07038 | -39.26850 | 7930 ft | 294 kts | 276° |
| 2026-04-14 21:55 | -7.06820 | -39.28856 | 7585 ft | 288 kts | 276° |
| 2026-04-14 21:55 | -7.06602 | -39.30844 | 7221 ft | 281 kts | 276° |
| 2026-04-14 21:56 | -7.06391 | -39.32773 | 6871 ft | 275 kts | 276° |
| 2026-04-14 21:56 | -7.06187 | -39.34641 | 6533 ft | 269 kts | 276° |
| 2026-04-14 21:56 | -7.05983 | -39.36501 | 6197 ft | 264 kts | 275° |
| 2026-04-14 21:56 | -7.05785 | -39.38315 | 5886 ft | 257 kts | 275° |
| 2026-04-14 21:57 | -7.05594 | -39.40053 | 5702 ft | 245 kts | 275° |
| 2026-04-14 21:57 | -7.05512 | -39.41724 | 5626 ft | 228 kts | 264° |
| 2026-04-14 21:57 | -7.05922 | -39.43168 | 5569 ft | 207 kts | 233° |
| 2026-04-14 21:57 | -7.06897 | -39.44171 | 5428 ft | 197 kts | 210° |
| 2026-04-14 21:58 | -7.08097 | -39.44823 | 5189 ft | 195 kts | 195° |
| 2026-04-14 21:58 | -7.09396 | -39.45045 | 4982 ft | 188 kts | 175° |
| 2026-04-14 21:58 | -7.10721 | -39.45012 | 4806 ft | 186 kts | 174° |
| 2026-04-14 21:58 | -7.12023 | -39.44997 | 4621 ft | 188 kts | 176° |
| 2026-04-14 21:59 | -7.13332 | -39.45004 | 4489 ft | 185 kts | 174° |
| 2026-04-14 21:59 | -7.14579 | -39.44761 | 4354 ft | 180 kts | 149° |
| 2026-04-14 21:59 | -7.15462 | -39.43931 | 4248 ft | 176 kts | 119° |
| 2026-04-14 21:59 | -7.15966 | -39.42797 | 4112 ft | 177 kts | 109° |
| 2026-04-14 22:00 | -7.16387 | -39.41638 | 3966 ft | 173 kts | 109° |
| 2026-04-14 22:00 | -7.16804 | -39.40535 | 3776 ft | 165 kts | 110° |
| 2026-04-14 22:00 | -7.17216 | -39.39457 | 3624 ft | 164 kts | 110° |
| 2026-04-14 22:00 | -7.17617 | -39.38387 | 3479 ft | 162 kts | 109° |
| 2026-04-14 22:01 | -7.18010 | -39.37333 | 3337 ft | 162 kts | 109° |
| 2026-04-14 22:01 | -7.18396 | -39.36305 | 3201 ft | 156 kts | 109° |
| 2026-04-14 22:01 | -7.18774 | -39.35308 | 2925 ft | 151 kts | 109° |
| 2026-04-14 22:01 | -7.19152 | -39.34304 | 2724 ft | 152 kts | 110° |
| 2026-04-14 22:02 | -7.19524 | -39.33311 | 2529 ft | 150 kts | 110° |
| 2026-04-14 22:02 | -7.19900 | -39.32309 | 2319 ft | 153 kts | 110° |
| 2026-04-14 22:02 | -7.20279 | -39.31322 | 2108 ft | 153 kts | 111° |
| 2026-04-14 22:02 | -7.20658 | -39.30313 | 1885 ft | 155 kts | 109° |
| 2026-04-14 22:03 | -7.21024 | -39.29288 | 1671 ft | 158 kts | 111° |
| 2026-04-14 22:03 | -7.21420 | -39.28263 | 1497 ft | 154 kts | 111° |
| 2026-04-14 22:03 | -7.21800 | -39.27269 | 1362 ft | 148 kts | 110° |
| 2026-04-14 22:03 | -7.22112 | -39.26431 | 1342 ft | 88 kts | 110° |
| 2026-04-14 22:04 | -7.22229 | -39.26116 | 1325 ft | 12 kts | 118° |
| 2026-04-14 22:04 | -7.22244 | -39.26057 | 1321 ft | 7 kts | 319° |
| 2026-04-14 22:04 | -7.22235 | -39.26073 | 1322 ft | 0 kts | 292° |
| 2026-04-14 22:05 | -7.22232 | -39.26079 | 1323 ft | 0 kts | 292° |
| 2026-04-14 22:05 | -7.22227 | -39.26092 | 1324 ft | 4 kts | 291° |
| 2026-04-14 22:06 | -7.22215 | -39.26131 | 1327 ft | 7 kts | 285° |
| 2026-04-14 22:06 | -7.22199 | -39.26188 | 1331 ft | 10 kts | 287° |
| 2026-04-14 22:06 | -7.22166 | -39.26279 | 1337 ft | 17 kts | 291° |
| 2026-04-14 22:06 | -7.22115 | -39.26417 | 1341 ft | 25 kts | 291° |
| 2026-04-14 22:07 | -7.22041 | -39.26610 | 1347 ft | 33 kts | 291° |
| 2026-04-14 22:07 | -7.21951 | -39.26848 | 1353 ft | 38 kts | 290° |
| 2026-04-14 22:07 | -7.21868 | -39.27068 | 1357 ft | 19 kts | 292° |
| 2026-04-14 22:07 | -7.21807 | -39.27140 | 1358 ft | 12 kts | 335° |
| 2026-04-14 22:08 | -7.21728 | -39.27176 | 1357 ft | 12 kts | 335° |
| 2026-04-14 22:08 | -7.21678 | -39.27198 | 1357 ft | 5 kts | 346° |
| 2026-04-14 22:08 | -7.21647 | -39.27185 | 1356 ft | 5 kts | 35° |
| 2026-04-14 22:08 | -7.21614 | -39.27170 | 1355 ft | 1 kts | 20° |
| 2026-04-14 22:09 | -7.21600 | -39.27164 | 1355 ft | 0 kts | 20° |